Latest Weather Observations for East Sale

IDV60801

Issued at 4:31 pm EST Monday 30 May 2016 (issued every 30 minutes, with the page automatically refreshed every 10 minutes)

About weather observations | Map of weather stations | Latest weather observations for VIC | Other Formats
Station Details ID: 085072 Name: EAST SALE AIRPORT Lat: -38.12 Lon: 147.13 Height: 4.6 m
Data from the previous 72 hours. | See also: Recent months at East Sale
Date/Time
EST
Temp
°C
App
Temp
°C
Dew
Point
Rel
Hum
%
Delta-T
°C
Wind Press
QNH
hPa
Press
MSL
hPa
Rain
since 9 am
mm
Dir
 
Spd
km/h
Gust
km/h
Spd
kts
Gust
kts
30/04:00pm 13.7 10.4 6.3 61 3.5 E 13 17 7 9 1027.0 1027.0 0.0
30/03:30pm 14.9 12.3 6.0 55 4.3 NE 9 11 5 6 1026.9 1026.9 0.0
30/03:00pm 14.5 12.1 5.3 54 4.3 NE 7 11 4 6 1026.8 1026.8 0.0
30/02:30pm 14.9 12.7 5.4 53 4.5 NNE 6 9 3 5 1026.7 1026.7 0.0
30/02:00pm 15.5 13.4 5.7 52 4.7 NW 6 9 3 5 1026.7 1026.7 0.0
30/01:30pm 15.1 13.4 5.9 54 4.4 WNW 4 7 2 4 1026.8 1026.8 0.0
30/01:00pm 14.3 12.0 5.9 57 4.0 WNW 7 11 4 6 1027.0 1027.0 0.0
30/12:30pm 13.6 10.6 6.0 60 3.6 WNW 11 15 6 8 1027.2 1027.2 0.0
30/12:00pm 12.8 9.7 5.5 61 3.4 WNW 11 15 6 8 1027.3 1027.3 0.0
30/11:30am 12.6 9.9 5.5 62 3.3 W 9 13 5 7 1027.7 1027.7 0.0
30/11:00am 11.2 7.6 5.1 66 2.8 WNW 13 17 7 9 1027.9 1027.9 0.0
30/10:30am 9.8 5.1 5.0 72 2.2 WNW 19 22 10 12 1027.9 1027.9 0.0
30/10:00am 7.8 3.3 4.2 78 1.5 WNW 17 20 9 11 1028.1 1028.1 0.0
30/09:30am 6.9 2.4 4.2 83 1.2 WNW 17 20 9 11 1027.9 1027.9 0.0
30/09:00am 5.1 1.5 3.1 87 0.8 WNW 11 17 6 9 1027.8 1027.8 0.0
30/08:30am 4.4 0.7 2.6 88 0.7 WNW 11 15 6 8 1027.4 1027.4 0.0
30/08:00am 3.5 -0.6 2.3 92 0.5 WNW 13 15 7 8 1027.0 1027.0 0.0
30/07:30am 2.9 -0.9 2.0 94 0.4 WNW 11 15 6 8 1026.7 1026.7 0.0
30/07:00am 2.3 -1.2 1.1 92 0.5 WNW 9 11 5 6 1026.5 1026.5 0.0
30/06:30am 2.5 -2.1 1.5 93 0.4 NW 15 15 8 8 1026.0 1026.0 0.0
30/06:00am 2.0 -2.3 1.0 93 0.4 NW 13 15 7 8 1025.7 1025.7 0.0
30/05:30am 2.4 -1.5 1.1 91 0.5 NW 11 13 6 7 1025.5 1025.5 0.0
30/05:00am 2.9 -1.3 1.6 91 0.5 NW 13 15 7 8 1025.1 1025.1 0.0
30/04:30am 3.0 -1.6 1.7 91 0.5 WNW 15 17 8 9 1024.9 1024.9 0.0
30/04:00am 3.3 -1.2 2.3 93 0.4 WNW 15 15 8 8 1024.6 1024.6 0.0
30/03:30am 2.4 -1.9 1.2 92 0.5 WNW 13 15 7 8 1024.4 1024.4 0.0
30/03:00am 3.2 -1.3 1.9 91 0.5 NW 15 15 8 8 1024.4 1024.4 0.0
30/02:30am 3.6 -0.9 2.3 91 0.5 NW 15 17 8 9 1024.3 1024.3 0.0
30/02:00am 4.2 0.2 3.0 92 0.5 NW 13 15 7 8 1024.1 1024.1 0.0
30/01:30am 4.4 0.5 3.2 92 0.5 NW 13 15 7 8 1023.8 1023.8 0.0
30/01:00am 4.8 0.9 3.5 91 0.5 NW 13 17 7 9 1023.6 1023.6 0.0
30/12:30am 4.7 0.8 3.2 90 0.6 NW 13 13 7 7 1023.6 1023.6 0.0
30/12:00am 5.5 1.6 3.5 87 0.8 WNW 13 15 7 8 1023.5 1023.5 0.0
 
Date/Time
EST
Temp
°C
App
Temp
°C
Dew
Point
Rel
Hum
%
Delta-T
°C
Wind Press
QNH
hPa
Press
MSL
hPa
Rain
since 9 am
mm
Dir
 
Spd
km/h
Gust
km/h
Spd
kts
Gust
kts
29/11:30pm 6.5 2.0 4.3 86 0.9 WNW 17 19 9 10 1023.4 1023.4 0.0
29/11:00pm 7.0 2.5 4.3 83 1.2 WNW 17 17 9 9 1023.4 1023.4 0.0
29/10:30pm 6.6 2.5 4.1 84 1.1 WNW 15 19 8 10 1023.1 1023.1 0.0
29/10:00pm 6.9 2.7 4.0 82 1.2 WNW 15 17 8 9 1023.1 1023.1 0.0
29/09:30pm 7.9 3.9 4.7 80 1.4 W 15 17 8 9 1023.1 1023.1 0.0
29/09:00pm 8.9 5.5 6.0 82 1.3 WNW 13 15 7 8 1023.0 1023.0 0.0
29/08:30pm 8.4 5.5 6.4 87 0.9 NW 11 13 6 7 1022.8 1022.8 0.0
29/08:00pm 8.0 4.9 5.6 85 1.1 NW 11 13 6 7 1022.4 1022.4 0.0
29/07:30pm 9.0 5.6 6.1 82 1.3 WNW 13 17 7 9 1021.9 1021.9 0.0
29/07:00pm 8.5 4.2 5.4 81 1.4 WNW 17 20 9 11 1021.5 1021.5 0.0
29/06:30pm 9.7 5.6 6.1 78 1.7 W 17 22 9 12 1021.0 1021.0 0.0
29/06:00pm 10.4 6.0 6.5 77 1.8 W 19 24 10 13 1020.6 1020.6 0.0
29/05:30pm 10.8 6.5 5.1 68 2.6 W 17 24 9 13 1020.3 1020.3 0.0
29/05:00pm 11.3 6.5 4.7 64 3.0 W 19 26 10 14 1019.8 1019.8 0.0
29/04:30pm 12.0 7.2 4.7 61 3.3 WSW 19 28 10 15 1019.4 1019.4 0.0
29/04:00pm 13.3 7.4 5.9 61 3.5 W 26 33 14 18 1019.1 1019.1 0.0
29/03:30pm 13.7 7.5 6.3 61 3.5 W 28 37 15 20 1018.8 1018.8 0.0
29/03:00pm 14.0 7.2 6.8 62 3.5 W 32 46 17 25 1018.7 1018.7 0.0
29/02:30pm 14.4 7.4 7.0 61 3.6 W 33 44 18 24 1018.4 1018.4 0.0
29/02:00pm 14.4 7.2 6.0 57 4.0 W 33 48 18 26 1018.0 1018.0 0.0
29/01:30pm 14.2 6.7 6.3 59 3.8 W 35 48 19 26 1018.1 1018.1 0.0
29/01:00pm 13.6 6.5 6.5 62 3.4 W 33 56 18 30 1018.1 1018.1 0.0
29/12:53pm 13.8 7.1 7.3 65 3.2 W 32 56 17 30 1018.1 1018.1 0.0
29/12:30pm 13.1 7.1 7.1 67 2.9 W 28 43 15 23 1018.2 1018.2 0.0
29/12:00pm 12.6 6.8 7.9 73 2.3 W 28 37 15 20 1018.3 1018.3 0.0
29/11:30am 11.7 5.1 7.6 76 2.0 W 32 44 17 24 1018.5 1018.5 0.0
29/11:00am 11.5 4.0 8.0 79 1.7 W 37 48 20 26 1018.6 1018.6 0.0
29/10:42am 11.5 4.9 7.6 77 1.9 W 32 50 17 27 1018.6 1018.6 0.0
29/10:30am 12.1 6.4 8.2 77 1.9 W 28 39 15 21 1018.7 1018.7 0.0
29/10:00am 11.4 6.4 7.9 79 1.7 W 24 33 13 18 1018.4 1018.4 0.0
29/09:30am 11.1 6.1 8.0 81 1.5 W 24 32 13 17 1018.1 1018.1 0.0
29/09:00am 10.2 5.1 7.6 84 1.2 W 24 32 13 17 1018.0 1018.0 0.0
29/08:30am 10.3 5.6 7.7 84 1.2 WNW 22 30 12 16 1017.6 1017.6 0.0
29/08:00am 9.4 4.6 7.2 86 1.0 WNW 22 30 12 16 1017.3 1017.3 0.0
29/07:30am 9.3 4.9 7.3 87 0.9 W 20 26 11 14 1017.1 1017.1 0.0
29/07:00am 9.4 4.6 7.3 87 1.0 W 22 28 12 15 1016.7 1016.7 0.0
29/06:30am 9.3 4.5 7.4 88 0.9 WNW 22 28 12 15 1016.5 1016.5 0.0
29/06:00am 9.5 3.9 7.3 86 1.0 WNW 26 33 14 18 1016.2 1016.2 0.0
29/05:30am 9.8 5.4 7.2 84 1.2 W 20 28 11 15 1015.9 1015.9 0.0
29/05:00am 9.7 4.9 7.5 86 1.0 WNW 22 28 12 15 1015.6 1015.6 0.0
29/04:30am 9.4 5.3 7.7 89 0.8 W 19 26 10 14 1015.6 1015.6 0.0
29/04:00am 9.5 5.1 7.6 88 0.9 W 20 26 11 14 1015.3 1015.3 0.0
29/03:30am 9.4 5.0 7.5 88 0.9 W 20 28 11 15 1015.1 1015.1 0.0
29/03:00am 9.2 4.8 7.3 88 0.9 W 20 28 11 15 1015.1 1015.1 0.0
29/02:30am 9.1 4.9 7.4 89 0.8 WNW 19 22 10 12 1014.9 1014.9 0.0
29/02:00am 9.2 4.4 7.3 88 0.9 WNW 22 30 12 16 1014.8 1014.8 0.0
29/01:30am 9.1 3.9 7.1 87 0.9 W 24 33 13 18 1014.6 1014.6 0.0
29/01:00am 9.0 3.7 7.0 87 0.9 W 24 32 13 17 1014.5 1014.5 0.0
29/12:30am 9.1 3.8 6.9 86 1.0 W 24 32 13 17 1014.4 1014.4 0.0
29/12:00am 9.1 3.9 7.2 88 0.9 WNW 24 32 13 17 1014.3 1014.3 0.0
 
Date/Time
EST
Temp
°C
App
Temp
°C
Dew
Point
Rel
Hum
%
Delta-T
°C
Wind Press
QNH
hPa
Press
MSL
hPa
Rain
since 9 am
mm
Dir
 
Spd
km/h
Gust
km/h
Spd
kts
Gust
kts
28/11:30pm 9.0 3.4 7.1 88 0.9 WNW 26 35 14 19 1014.3 1014.3 0.0
28/11:00pm 8.7 4.3 7.2 90 0.7 WNW 20 24 11 13 1014.4 1014.4 0.0
28/10:30pm 9.0 4.6 7.6 91 0.7 W 20 26 11 14 1014.3 1014.3 0.0
28/10:00pm 9.1 4.0 7.7 91 0.7 W 24 30 13 16 1014.2 1014.2 0.0
28/09:30pm 8.6 4.3 7.2 91 0.7 W 19 24 10 13 1014.2 1014.2 0.0
28/09:00pm 8.5 4.2 7.0 90 0.7 WNW 19 20 10 11 1014.1 1014.1 0.0
28/08:30pm 8.4 4.9 7.0 91 0.7 WNW 15 15 8 8 1013.9 1013.9 0.0
28/08:00pm 8.8 5.3 7.1 89 0.8 W 15 19 8 10 1013.6 1013.6 0.0
28/07:30pm 9.4 5.0 7.5 88 0.9 WNW 20 24 11 13 1013.3 1013.3 0.0
28/07:00pm 9.3 5.1 7.4 88 0.9 WNW 19 22 10 12 1013.1 1013.1 0.0
28/06:30pm 9.7 5.3 7.5 86 1.0 W 20 24 11 13 1012.7 1012.7 0.0
28/06:00pm 10.7 4.8 7.4 80 1.6 W 28 35 15 19 1012.3 1012.3 0.0
28/05:30pm 10.9 6.0 6.8 76 1.9 W 22 30 12 16 1011.9 1011.9 0.0
28/05:00pm 11.2 6.4 5.7 69 2.5 W 20 28 11 15 1011.6 1011.6 0.0
28/04:30pm 12.0 8.6 5.9 66 2.9 WSW 13 15 7 8 1011.2 1011.2 0.0
28/04:00pm 13.1 8.9 5.8 61 3.4 WSW 17 22 9 12 1010.8 1010.8 0.0
28/03:30pm 13.7 10.0 6.1 60 3.6 WSW 15 20 8 11 1010.5 1010.5 0.0
28/03:00pm 13.3 9.1 8.2 71 2.5 W 20 28 11 15 1010.3 1010.3 0.0
28/02:30pm 12.8 7.6 8.9 77 2.0 W 26 37 14 20 1009.9 1009.9 0.0
28/02:00pm 13.2 8.3 8.3 72 2.4 W 24 33 13 18 1009.5 1009.5 0.0
28/01:30pm 14.2 8.1 9.6 74 2.4 W 32 39 17 21 1009.3 1009.3 0.0
28/01:00pm 13.3 7.6 8.4 72 2.4 W 28 39 15 21 1009.2 1009.2 0.0
28/12:30pm 13.3 8.4 8.6 73 2.4 W 24 35 13 19 1009.1 1009.1 0.0
28/12:00pm 12.9 7.2 8.4 74 2.2 W 28 37 15 20 1009.3 1009.3 0.0
28/11:30am 12.2 6.1 8.1 76 2.0 W 30 37 16 20 1009.5 1009.5 0.0
28/11:00am 11.0 5.2 7.9 81 1.5 W 28 35 15 19 1009.7 1009.7 0.0
28/10:30am 10.0 4.7 6.7 80 1.5 WNW 24 30 13 16 1009.9 1009.9 0.0
28/10:00am 9.5 4.2 6.6 82 1.4 WNW 24 30 13 16 1009.9 1009.9 0.0
28/09:30am 8.5 3.4 6.0 84 1.1 WNW 22 30 12 16 1009.7 1009.7 0.0
28/09:00am 7.5 2.6 5.3 86 1.0 WNW 20 26 11 14 1009.6 1009.6 0.2
28/08:30am 6.7 2.3 5.0 89 0.7 WNW 17 20 9 11 1009.5 1009.5 0.2
28/08:00am 5.2 1.0 3.9 91 0.5 NW 15 17 8 9 1009.3 1009.3 0.2
28/07:30am 4.6 0.0 3.6 93 0.4 WNW 17 19 9 10 1009.1 1009.1 0.2
28/07:00am 4.8 0.3 4.1 95 0.3 WNW 17 20 9 11 1008.9 1008.9 0.2
28/06:30am 4.5 -0.4 4.1 97 0.2 WNW 19 20 10 11 1008.6 1008.6 0.2
28/06:00am 3.7 -1.0 3.4 98 0.1 WNW 17 19 9 10 1008.4 1008.4 0.2
28/05:30am 3.4 -0.6 3.1 98 0.1 WNW 13 15 7 8 1008.3 1008.3 0.2
28/05:00am 3.3 -1.0 3.0 98 0.1 WNW 15 15 8 8 1008.3 1008.3 0.2
28/04:30am 3.1 -0.9 2.7 97 0.2 WNW 13 15 7 8 1008.3 1008.3 0.2
28/04:00am 4.4 0.6 4.1 98 0.1 NW 13 15 7 8 1008.3 1008.3 0.2
28/03:30am 4.5 0.0 4.2 98 0.1 WNW 17 19 9 10 1008.2 1008.2 0.2
28/03:00am 3.3 -1.0 3.0 98 0.1 WNW 15 15 8 8 1008.4 1008.4 0.2
28/02:30am 3.0 -0.3 2.6 97 0.2 WNW 9 11 5 6 1008.5 1008.5 0.2
28/02:00am 4.1 0.6 3.7 97 0.2 WNW 11 13 6 7 1008.3 1008.3 0.0
28/01:30am 4.6 0.5 4.2 97 0.2 NW 15 17 8 9 1008.2 1008.2 0.0
28/01:00am 4.0 0.5 3.4 96 0.2 WNW 11 13 6 7 1008.2 1008.2 0.0
28/12:44am 5.0 1.3 4.6 97 0.2 NW 13 15 7 8 1008.2 1008.2 0.0
28/12:30am 5.2 1.1 4.6 96 0.3 NW 15 19 8 10 1008.3 1008.3 0.0
28/12:26am 5.2 0.8 4.6 96 0.3 NW 17 19 9 10 1008.3 1008.3 0.0
28/12:00am 5.2 1.1 4.6 96 0.3 NW 15 17 8 9 1008.4 1008.4 0.0
 
Date/Time
EST
Temp
°C
App
Temp
°C
Dew
Point
Rel
Hum
%
Delta-T
°C
Wind Press
QNH
hPa
Press
MSL
hPa
Rain
since 9 am
mm
Dir
 
Spd
km/h
Gust
km/h
Spd
kts
Gust
kts
27/11:30pm 5.5 1.5 4.9 96 0.3 NW 15 17 8 9 1008.4 1008.4 0.0
27/11:00pm 5.3 2.0 4.4 94 0.4 NW 11 17 6 9 1008.4 1008.4 0.0
27/10:30pm 6.0 2.8 5.0 93 0.4 W 11 13 6 7 1008.4 1008.4 0.0
27/10:00pm 6.8 3.3 5.6 92 0.5 W 13 17 7 9 1008.4 1008.4 0.0
27/09:30pm 6.9 3.0 5.5 91 0.6 WNW 15 15 8 8 1008.3 1008.3 0.0
27/09:00pm 7.6 4.2 6.1 90 0.7 WNW 13 15 7 8 1008.2 1008.2 0.0
27/08:30pm 7.8 4.4 6.1 89 0.8 W 13 15 7 8 1008.2 1008.2 0.0
27/08:00pm 8.4 5.1 6.4 87 0.9 W 13 17 7 9 1008.0 1008.0 0.0
27/07:30pm 8.7 5.4 6.5 86 1.0 W 13 15 7 8 1007.9 1007.9 0.0
27/07:00pm 8.5 5.2 6.5 87 0.9 W 13 17 7 9 1007.8 1007.8 0.0
27/06:30pm 9.1 5.4 6.5 84 1.2 W 15 19 8 10 1007.6 1007.6 0.0
27/06:00pm 9.7 6.1 6.6 81 1.5 WSW 15 20 8 11 1007.4 1007.4 0.0
27/05:30pm 10.6 6.3 6.9 78 1.7 W 19 24 10 13 1007.1 1007.1 0.0
27/05:00pm 11.2 6.7 6.9 75 2.0 W 20 28 11 15 1006.8 1006.8 0.0

Other Formats:

Comma delimited format used in spreadsheet applications
http://www.bom.gov.au/fwo/IDV60801/IDV60801.94907.axf

JavaScript Object Notation format (JSON) in row-major order
http://www.bom.gov.au/fwo/IDV60801/IDV60801.94907.json